createdAt,value
2019-01-30T00:00:33.626Z,55.85
2019-01-30T00:03:13.933Z,55.84
2019-01-30T00:05:45.930Z,55.87
2019-01-30T00:08:18.600Z,55.85
2019-01-30T00:10:50.269Z,55.77
2019-01-30T00:13:22.099Z,55.72
2019-01-30T00:15:56.324Z,55.67
2019-01-30T00:18:27.384Z,55.61
2019-01-30T00:20:59.076Z,55.60
2019-01-30T00:23:31.870Z,55.56
2019-01-30T00:26:03.543Z,55.52
2019-01-30T00:28:35.146Z,55.49
2019-01-30T00:31:07.025Z,55.52
2019-01-30T00:33:38.644Z,55.53
2019-01-30T00:36:11.569Z,55.58
2019-01-30T00:38:43.958Z,55.61
2019-01-30T00:41:15.584Z,55.60
2019-01-30T00:43:47.232Z,55.56
2019-01-30T00:46:18.929Z,55.57
2019-01-30T00:48:51.742Z,55.60
2019-01-30T00:51:25.703Z,55.59
2019-01-30T00:53:59.331Z,55.65
2019-01-30T00:56:33.460Z,55.75
2019-01-30T00:59:07.544Z,55.79
2019-01-30T01:01:40.255Z,55.84
2019-01-30T01:04:13.415Z,55.89
2019-01-30T01:06:45.065Z,55.95
2019-01-30T01:09:17.417Z,56.06
2019-01-30T01:11:49.040Z,56.16
2019-01-30T01:14:20.770Z,56.28
2019-01-30T01:16:52.346Z,56.29
2019-01-30T01:19:24.064Z,56.34
2019-01-30T01:21:57.437Z,56.36
2019-01-30T01:24:29.373Z,56.43
2019-01-30T01:27:01.268Z,56.39
2019-01-30T01:29:33.189Z,56.40
2019-01-30T01:32:04.838Z,56.36
2019-01-30T01:34:36.643Z,56.35
2019-01-30T01:37:08.213Z,56.26
2019-01-30T01:39:40.411Z,56.17
2019-01-30T01:42:12.927Z,56.31
2019-01-30T01:44:44.734Z,56.32
2019-01-30T01:47:16.486Z,56.25
2019-01-30T01:49:48.103Z,56.21
2019-01-30T01:52:20.802Z,56.08
2019-01-30T01:54:53.789Z,56.20
2019-01-30T01:57:26.561Z,56.11
2019-01-30T01:59:58.218Z,55.80
2019-01-30T02:02:29.848Z,55.76
2019-01-30T02:05:01.480Z,55.71
2019-01-30T02:07:33.484Z,55.86
2019-01-30T02:10:07.395Z,56.01
2019-01-30T02:12:41.072Z,55.94
2019-01-30T02:15:15.824Z,55.98
2019-01-30T02:17:47.466Z,56.00
2019-01-30T02:20:25.579Z,55.96
2019-01-30T02:22:58.700Z,56.00
2019-01-30T02:25:30.479Z,55.90
2019-01-30T02:28:03.883Z,56.00
2019-01-30T02:30:46.616Z,56.02
2019-01-30T02:33:09.623Z,56.00
2019-01-30T02:35:41.470Z,56.05
2019-01-30T02:38:13.429Z,56.04
2019-01-30T02:40:45.104Z,56.00
2019-01-30T02:43:17.452Z,55.91
2019-01-30T02:45:49.312Z,55.79
2019-01-30T02:48:21.027Z,55.55
2019-01-30T02:50:52.682Z,55.54
2019-01-30T02:53:24.279Z,55.56
2019-01-30T02:55:56.004Z,55.41
2019-01-30T02:58:28.061Z,55.36
2019-01-30T03:00:59.758Z,55.34
2019-01-30T03:03:31.600Z,55.31
2019-01-30T03:06:04.546Z,54.91
2019-01-30T03:08:36.255Z,54.92
2019-01-30T03:11:07.795Z,54.86
2019-01-30T03:13:40.577Z,54.95
2019-01-30T03:16:12.252Z,54.98
2019-01-30T03:18:43.840Z,54.94
2019-01-30T03:21:16.451Z,55.04
2019-01-30T03:23:48.071Z,54.93
2019-01-30T03:26:21.243Z,54.81
2019-01-30T03:28:53.587Z,54.81
2019-01-30T03:31:25.139Z,54.82
2019-01-30T03:33:56.774Z,54.74
2019-01-30T03:36:28.431Z,54.67
2019-01-30T03:39:00.016Z,54.72
2019-01-30T03:41:31.660Z,54.75
2019-01-30T03:44:03.916Z,54.72
2019-01-30T03:46:35.836Z,54.73
2019-01-30T03:49:07.416Z,54.57
2019-01-30T03:51:39.340Z,54.71
2019-01-30T03:54:11.292Z,54.59
2019-01-30T03:56:42.931Z,54.62
2019-01-30T03:59:14.644Z,54.54
2019-01-30T04:01:46.621Z,54.54
2019-01-30T04:04:18.284Z,54.57
2019-01-30T04:06:49.904Z,54.50
2019-01-30T04:09:21.480Z,54.59
2019-01-30T04:11:53.150Z,54.45
2019-01-30T04:14:24.727Z,54.16
2019-01-30T04:16:56.864Z,54.18
2019-01-30T04:19:28.847Z,54.43
2019-01-30T04:22:01.111Z,54.41
2019-01-30T04:24:32.746Z,54.50
2019-01-30T04:27:04.527Z,54.32
2019-01-30T04:29:36.133Z,54.34
2019-01-30T04:32:12.807Z,54.36
2019-01-30T04:34:44.514Z,54.33
2019-01-30T04:37:19.115Z,54.08
2019-01-30T04:39:53.197Z,54.05
2019-01-30T04:42:27.545Z,53.99
2019-01-30T04:45:01.044Z,53.90
2019-01-30T04:47:35.223Z,53.99
2019-01-30T04:50:14.058Z,53.90
2019-01-30T04:52:49.049Z,53.94
2019-01-30T04:55:26.280Z,53.87
2019-01-30T04:57:58.272Z,53.56
2019-01-30T05:00:30.107Z,53.89
2019-01-30T05:03:01.719Z,53.70
2019-01-30T05:05:37.196Z,53.83
2019-01-30T05:08:09.000Z,53.95
2019-01-30T05:10:40.622Z,53.87
2019-01-30T05:13:12.237Z,53.89
2019-01-30T05:15:44.629Z,53.87
2019-01-30T05:18:16.295Z,53.70
2019-01-30T05:20:48.325Z,53.54
2019-01-30T05:23:19.962Z,53.66
2019-01-30T05:25:52.263Z,53.55
2019-01-30T05:28:23.976Z,53.42
2019-01-30T05:30:55.634Z,53.54
2019-01-30T05:33:27.583Z,53.52
2019-01-30T05:35:59.696Z,53.50
2019-01-30T05:38:31.297Z,53.59
2019-01-30T05:41:02.930Z,53.54
2019-01-30T05:43:36.208Z,53.36
2019-01-30T05:46:07.877Z,53.41
2019-01-30T05:48:39.535Z,53.36
2019-01-30T05:51:11.501Z,53.40
2019-01-30T05:53:43.084Z,53.26
2019-01-30T05:56:14.941Z,53.38
2019-01-30T05:58:46.650Z,53.48
2019-01-30T06:01:18.372Z,53.38
2019-01-30T06:03:49.987Z,53.32
2019-01-30T06:06:23.860Z,53.22
2019-01-30T06:08:55.736Z,53.27
2019-01-30T06:11:27.613Z,53.26
2019-01-30T06:13:59.235Z,53.29
2019-01-30T06:16:30.983Z,53.26
2019-01-30T06:19:02.583Z,53.15
2019-01-30T06:21:35.541Z,53.29
2019-01-30T06:24:07.121Z,53.33
2019-01-30T06:26:38.803Z,53.24
2019-01-30T06:29:10.467Z,53.32
2019-01-30T06:31:42.216Z,53.32
2019-01-30T06:34:13.909Z,53.15
2019-01-30T06:36:45.581Z,53.17
2019-01-30T06:39:18.239Z,53.14
2019-01-30T06:41:49.851Z,52.92
2019-01-30T06:44:22.200Z,52.84
2019-01-30T06:46:53.872Z,52.86
2019-01-30T06:49:25.495Z,52.99
2019-01-30T06:51:57.221Z,53.07
2019-01-30T06:54:29.381Z,52.93
2019-01-30T06:57:01.102Z,52.96
2019-01-30T06:59:32.714Z,53.06
2019-01-30T07:02:04.551Z,52.87
2019-01-30T07:04:37.245Z,52.92
2019-01-30T07:07:09.223Z,53.04
2019-01-30T07:09:41.315Z,53.09
2019-01-30T07:12:12.978Z,52.99
2019-01-30T07:14:44.832Z,52.92
2019-01-30T07:17:17.757Z,52.77
2019-01-30T07:19:49.710Z,52.89
2019-01-30T07:22:21.705Z,52.74
2019-01-30T07:24:53.808Z,52.83
2019-01-30T07:27:25.439Z,53.01
2019-01-30T07:29:57.114Z,53.08
2019-01-30T07:32:28.721Z,53.04
2019-01-30T07:35:00.315Z,52.92
2019-01-30T07:37:32.265Z,52.93
2019-01-30T07:40:04.949Z,52.79
2019-01-30T07:42:38.135Z,52.87
2019-01-30T07:45:12.423Z,52.92
2019-01-30T07:47:44.735Z,52.92
2019-01-30T07:50:16.781Z,52.90
2019-01-30T07:52:48.990Z,52.88
2019-01-30T07:55:21.164Z,52.86
2019-01-30T07:57:56.629Z,52.81
2019-01-30T08:00:32.199Z,52.81
2019-01-30T08:03:03.916Z,52.77
2019-01-30T08:05:35.602Z,52.74
2019-01-30T08:08:08.578Z,52.70
2019-01-30T08:10:40.606Z,52.64
2019-01-30T08:13:14.657Z,52.60
2019-01-30T08:15:47.779Z,52.55
2019-01-30T08:18:20.957Z,52.55
2019-01-30T08:20:54.089Z,52.54
2019-01-30T08:23:26.459Z,52.49
2019-01-30T08:25:58.365Z,52.53
2019-01-30T08:28:30.505Z,52.59
2019-01-30T08:31:02.526Z,52.59
2019-01-30T08:33:34.343Z,52.64
2019-01-30T08:36:07.176Z,52.68
2019-01-30T08:38:39.280Z,52.64
2019-01-30T08:41:11.117Z,52.66
2019-01-30T08:43:43.380Z,52.75
2019-01-30T08:46:15.055Z,52.71
2019-01-30T08:48:46.838Z,52.67
2019-01-30T08:51:18.508Z,52.77
2019-01-30T08:53:51.304Z,52.77
2019-01-30T08:56:23.124Z,52.74
2019-01-30T08:58:56.275Z,52.66
2019-01-30T09:01:30.019Z,52.60
2019-01-30T09:04:01.683Z,52.62
2019-01-30T09:06:33.366Z,52.55
2019-01-30T09:09:08.643Z,52.51
2019-01-30T09:11:40.291Z,52.58
2019-01-30T09:14:13.388Z,52.58
2019-01-30T09:16:45.316Z,52.45
2019-01-30T09:19:17.015Z,52.52
2019-01-30T09:21:49.908Z,52.50
2019-01-30T09:24:23.496Z,52.47
2019-01-30T09:26:55.310Z,52.40
2019-01-30T09:29:27.783Z,52.32
2019-01-30T09:31:59.428Z,52.32
2019-01-30T09:34:31.284Z,52.34
2019-01-30T09:37:04.428Z,52.27
2019-01-30T09:39:37.666Z,52.25
2019-01-30T09:42:09.851Z,52.21
2019-01-30T09:44:42.325Z,52.22
2019-01-30T09:47:14.192Z,52.14
2019-01-30T09:49:46.050Z,51.93
2019-01-30T09:52:26.664Z,52.05
2019-01-30T09:54:52.646Z,52.06
2019-01-30T09:57:25.595Z,51.93
2019-01-30T09:59:57.526Z,51.87
2019-01-30T10:02:29.766Z,52.00
2019-01-30T10:05:01.730Z,52.13
2019-01-30T10:07:33.555Z,52.21
2019-01-30T10:10:07.571Z,52.20
2019-01-30T10:12:39.278Z,52.16
2019-01-30T10:15:12.694Z,52.02
2019-01-30T10:17:44.930Z,51.91
2019-01-30T10:20:21.010Z,52.03
2019-01-30T10:22:53.859Z,52.09
2019-01-30T10:25:27.005Z,52.17
2019-01-30T10:27:58.740Z,52.26
2019-01-30T10:30:33.472Z,52.36
2019-01-30T10:33:06.234Z,52.40
2019-01-30T10:35:37.856Z,52.36
2019-01-30T10:38:09.556Z,52.43
2019-01-30T10:40:41.335Z,52.45
2019-01-30T10:43:13.233Z,52.50
2019-01-30T10:45:44.898Z,52.50
2019-01-30T10:48:17.201Z,52.47
2019-01-30T10:50:48.809Z,52.52
2019-01-30T10:53:20.903Z,52.57
2019-01-30T10:55:52.673Z,52.57
2019-01-30T10:58:24.336Z,52.53
2019-01-30T11:00:55.969Z,52.46
2019-01-30T11:03:28.335Z,52.44
2019-01-30T11:06:00.967Z,52.50
2019-01-30T11:08:34.495Z,52.57
2019-01-30T11:11:07.985Z,52.58
2019-01-30T11:13:39.452Z,52.47
2019-01-30T11:16:11.322Z,52.35
2019-01-30T11:18:44.111Z,52.43
2019-01-30T11:21:15.748Z,52.42
2019-01-30T11:23:48.136Z,52.42
2019-01-30T11:26:19.752Z,52.33
2019-01-30T11:28:51.645Z,52.26
2019-01-30T11:31:23.324Z,52.32
2019-01-30T11:33:55.631Z,52.31
2019-01-30T11:36:27.267Z,52.29
2019-01-30T11:38:58.931Z,52.48
2019-01-30T11:41:30.629Z,52.66
2019-01-30T11:44:02.405Z,52.73
2019-01-30T11:46:34.001Z,52.89
2019-01-30T11:49:06.639Z,52.96
2019-01-30T11:51:38.425Z,52.85
2019-01-30T11:54:10.053Z,53.04
2019-01-30T11:56:41.769Z,53.29
2019-01-30T11:59:13.453Z,53.54
2019-01-30T12:01:45.098Z,53.55
2019-01-30T12:04:19.474Z,53.66
2019-01-30T12:06:51.708Z,53.75
2019-01-30T12:09:23.400Z,53.80
2019-01-30T12:11:55.056Z,53.88
2019-01-30T12:14:26.790Z,53.98
2019-01-30T12:16:58.456Z,54.00
2019-01-30T12:19:30.055Z,54.05
2019-01-30T12:22:02.409Z,54.11
2019-01-30T12:24:35.842Z,54.16
2019-01-30T12:27:07.963Z,54.17
2019-01-30T12:29:41.182Z,54.23
2019-01-30T12:32:12.957Z,54.17
2019-01-30T12:34:44.733Z,54.09
2019-01-30T12:37:16.994Z,54.08
2019-01-30T12:39:48.651Z,54.10
2019-01-30T12:42:20.351Z,54.05
2019-01-30T12:44:52.812Z,54.07
2019-01-30T12:47:24.462Z,54.16
2019-01-30T12:49:56.093Z,54.33
2019-01-30T12:52:28.849Z,54.59
2019-01-30T12:55:03.897Z,54.79
2019-01-30T12:57:36.623Z,54.95
2019-01-30T13:00:12.568Z,55.08
2019-01-30T13:02:44.423Z,55.25
2019-01-30T13:05:16.755Z,55.36
2019-01-30T13:07:49.134Z,55.49
2019-01-30T13:10:20.769Z,55.59
2019-01-30T13:12:52.493Z,55.60
2019-01-30T13:15:26.282Z,55.57
2019-01-30T13:17:58.298Z,55.48
2019-01-30T13:20:29.982Z,55.47
2019-01-30T13:23:03.051Z,55.45
2019-01-30T13:25:35.904Z,55.38
2019-01-30T13:28:07.912Z,55.30
2019-01-30T13:30:43.587Z,55.32
2019-01-30T13:33:14.994Z,55.25
2019-01-30T13:35:46.632Z,55.33
2019-01-30T13:38:19.080Z,55.39
2019-01-30T13:40:50.969Z,55.42
2019-01-30T13:43:23.557Z,55.42
2019-01-30T13:46:05.232Z,55.45
2019-01-30T13:48:31.527Z,55.45
2019-01-30T13:51:03.011Z,55.43
2019-01-30T13:53:37.169Z,55.52
2019-01-30T13:56:10.221Z,55.60
2019-01-30T13:58:42.731Z,55.61
2019-01-30T14:01:17.674Z,55.66
2019-01-30T14:03:48.024Z,55.67
2019-01-30T14:06:19.648Z,55.78
2019-01-30T14:08:51.997Z,55.99
2019-01-30T14:11:23.729Z,56.09
2019-01-30T14:13:55.667Z,56.13
2019-01-30T14:16:28.834Z,56.25
2019-01-30T14:19:01.317Z,56.25
2019-01-30T14:21:33.061Z,56.31
2019-01-30T14:24:17.596Z,56.31
2019-01-30T14:26:49.215Z,56.36
2019-01-30T14:29:20.927Z,56.47
2019-01-30T14:31:52.973Z,56.56
2019-01-30T14:34:24.594Z,56.62
2019-01-30T14:36:56.205Z,56.80
2019-01-30T14:39:27.937Z,56.90
2019-01-30T14:42:00.147Z,57.00
2019-01-30T14:44:31.992Z,57.07
2019-01-30T14:47:03.613Z,57.23
2019-01-30T14:49:35.352Z,57.29
2019-01-30T14:52:07.005Z,57.41
2019-01-30T14:54:38.625Z,57.58
2019-01-30T14:57:10.891Z,57.59
2019-01-30T14:59:42.565Z,57.65
2019-01-30T15:02:14.214Z,57.73
2019-01-30T15:04:45.868Z,57.83
2019-01-30T15:07:28.139Z,57.97
2019-01-30T15:09:50.886Z,58.09
2019-01-30T15:12:23.384Z,58.16
2019-01-30T15:14:55.141Z,58.35
2019-01-30T15:17:27.017Z,58.41
2019-01-30T15:19:58.736Z,58.49
2019-01-30T15:22:30.896Z,58.54
2019-01-30T15:25:03.457Z,58.63
2019-01-30T15:27:36.089Z,58.62
2019-01-30T15:30:11.458Z,59.18
2019-01-30T15:32:43.153Z,59.20
2019-01-30T15:35:15.113Z,59.58
2019-01-30T15:37:46.825Z,59.50
2019-01-30T15:40:21.763Z,59.60
2019-01-30T15:42:53.557Z,59.51
2019-01-30T15:45:26.326Z,59.60
2019-01-30T15:47:58.029Z,59.51
2019-01-30T15:50:32.017Z,59.39
2019-01-30T15:53:06.809Z,59.46
2019-01-30T15:55:38.566Z,59.56
2019-01-30T15:58:12.381Z,59.47
2019-01-30T16:01:09.973Z,59.59
2019-01-30T16:03:42.926Z,59.81
2019-01-30T16:06:14.634Z,59.69
2019-01-30T16:08:46.369Z,59.85
2019-01-30T16:11:18.031Z,59.78
2019-01-30T16:13:49.750Z,59.85
2019-01-30T16:16:21.410Z,59.90
2019-01-30T16:18:53.169Z,59.89
2019-01-30T16:21:24.840Z,59.94
2019-01-30T16:23:57.344Z,60.01
2019-01-30T16:26:29.182Z,59.91
2019-01-30T16:29:00.888Z,59.93
2019-01-30T16:31:32.577Z,59.95
2019-01-30T16:34:04.301Z,59.91
2019-01-30T16:36:37.208Z,59.84
2019-01-30T16:39:10.786Z,59.86
2019-01-30T16:41:47.274Z,59.77
2019-01-30T16:44:19.283Z,59.83
2019-01-30T16:46:51.165Z,59.70
2019-01-30T16:49:23.320Z,59.69
2019-01-30T16:51:55.445Z,59.65
2019-01-30T16:54:27.173Z,59.66
2019-01-30T16:56:58.807Z,59.64
2019-01-30T16:59:30.471Z,59.65
2019-01-30T17:02:02.163Z,59.52
2019-01-30T17:04:33.834Z,59.45
2019-01-30T17:07:05.767Z,59.40
2019-01-30T17:09:37.450Z,59.31
2019-01-30T17:12:09.223Z,59.26
2019-01-30T17:14:40.845Z,59.20
2019-01-30T17:17:12.549Z,59.08
2019-01-30T17:19:44.291Z,58.96
2019-01-30T17:22:16.077Z,58.91
2019-01-30T17:24:48.542Z,58.82
2019-01-30T17:27:20.355Z,58.71
2019-01-30T17:29:51.982Z,58.63
2019-01-30T17:32:23.750Z,58.56
2019-01-30T17:34:55.462Z,58.49
2019-01-30T17:37:27.376Z,58.41
2019-01-30T17:39:59.172Z,58.33
2019-01-30T17:42:31.029Z,58.28
2019-01-30T17:45:02.786Z,58.21
2019-01-30T17:47:34.555Z,58.17
2019-01-30T17:50:08.916Z,58.16
2019-01-30T17:52:40.819Z,58.13
2019-01-30T17:55:12.680Z,58.07
2019-01-30T17:57:44.590Z,58.06
2019-01-30T18:00:27.909Z,58.09
2019-01-30T18:02:59.659Z,58.10
2019-01-30T18:05:31.640Z,58.12
2019-01-30T18:08:05.078Z,58.11
2019-01-30T18:10:37.127Z,58.07
2019-01-30T18:13:08.930Z,57.98
2019-01-30T18:15:40.567Z,57.96
2019-01-30T18:18:12.295Z,57.89
2019-01-30T18:20:44.038Z,57.85
2019-01-30T18:23:16.130Z,57.85
2019-01-30T18:25:48.575Z,57.83
2019-01-30T18:28:20.451Z,57.77
2019-01-30T18:30:52.203Z,57.75
2019-01-30T18:33:23.863Z,57.66
2019-01-30T18:35:56.543Z,57.62
2019-01-30T18:38:28.299Z,57.52
2019-01-30T18:41:00.210Z,57.46
2019-01-30T18:43:33.095Z,57.41
2019-01-30T18:46:07.085Z,57.33
2019-01-30T18:48:39.423Z,57.29
2019-01-30T18:51:11.141Z,57.20
2019-01-30T18:53:42.789Z,57.16
2019-01-30T18:56:14.773Z,57.06
2019-01-30T18:58:46.472Z,56.98
2019-01-30T19:01:18.336Z,56.88
2019-01-30T19:03:50.072Z,56.81
2019-01-30T19:06:21.779Z,56.68
2019-01-30T19:08:53.482Z,56.61
2019-01-30T19:11:25.343Z,56.49
2019-01-30T19:13:57.003Z,56.46
2019-01-30T19:16:28.744Z,56.31
2019-01-30T19:19:00.534Z,56.30
2019-01-30T19:21:32.270Z,56.18
2019-01-30T19:24:04.368Z,56.18
2019-01-30T19:26:36.422Z,56.12
2019-01-30T19:29:08.132Z,55.94
2019-01-30T19:31:42.004Z,55.93
2019-01-30T19:34:13.764Z,55.91
2019-01-30T19:36:45.834Z,55.75
2019-01-30T19:39:17.705Z,55.64
2019-01-30T19:41:50.296Z,55.61
2019-01-30T19:44:22.043Z,55.59
2019-01-30T19:46:55.882Z,55.57
2019-01-30T19:49:28.783Z,55.51
2019-01-30T19:52:01.001Z,55.41
2019-01-30T19:54:33.011Z,55.34
2019-01-30T19:57:05.004Z,55.22
2019-01-30T19:59:36.801Z,55.16
2019-01-30T20:02:09.638Z,55.05
2019-01-30T20:04:41.599Z,54.98
2019-01-30T20:07:14.886Z,54.78
2019-01-30T20:09:46.870Z,54.85
2019-01-30T20:12:18.807Z,54.84
2019-01-30T20:14:50.791Z,54.83
2019-01-30T20:17:22.658Z,54.80
2019-01-30T20:19:54.478Z,54.69
2019-01-30T20:22:26.666Z,54.63
2019-01-30T20:24:58.480Z,54.61
2019-01-30T20:27:30.331Z,54.54
2019-01-30T20:30:02.415Z,54.47
2019-01-30T20:32:35.624Z,54.42
2019-01-30T20:35:10.241Z,54.37
2019-01-30T20:37:42.031Z,54.27
2019-01-30T20:40:17.565Z,54.24
2019-01-30T20:42:49.334Z,54.16
2019-01-30T20:45:32.996Z,54.15
2019-01-30T20:47:55.854Z,54.07
2019-01-30T20:50:29.755Z,53.97
2019-01-30T20:53:01.587Z,53.86
2019-01-30T20:55:33.355Z,53.89
2019-01-30T20:58:05.433Z,53.89
2019-01-30T21:00:39.495Z,53.83
2019-01-30T21:03:12.620Z,53.75
2019-01-30T21:05:45.008Z,53.69
2019-01-30T21:08:16.901Z,53.62
2019-01-30T21:10:48.676Z,53.59
2019-01-30T21:13:20.496Z,53.52
2019-01-30T21:15:56.275Z,53.39
2019-01-30T21:18:28.004Z,53.37
2019-01-30T21:20:59.845Z,53.35
2019-01-30T21:23:31.734Z,53.32
2019-01-30T21:26:03.870Z,53.27
2019-01-30T21:28:35.606Z,53.20
2019-01-30T21:31:07.707Z,53.14
2019-01-30T21:33:39.576Z,53.11
2019-01-30T21:36:12.549Z,53.07
2019-01-30T21:38:44.227Z,53.01
2019-01-30T21:41:15.951Z,52.96
2019-01-30T21:43:47.830Z,52.96
2019-01-30T21:46:19.987Z,52.93
2019-01-30T21:48:55.315Z,52.89
2019-01-30T21:51:26.405Z,52.80
2019-01-30T21:53:58.313Z,52.71
2019-01-30T21:56:32.148Z,52.63
2019-01-30T21:59:03.866Z,52.56
2019-01-30T22:01:35.684Z,52.50
2019-01-30T22:04:11.354Z,52.46
2019-01-30T22:06:44.795Z,52.45
2019-01-30T22:09:16.593Z,52.39
2019-01-30T22:11:48.291Z,52.37
2019-01-30T22:14:20.312Z,52.36
2019-01-30T22:16:51.954Z,52.40
2019-01-30T22:19:23.882Z,52.40
2019-01-30T22:21:55.537Z,52.41
2019-01-30T22:24:27.968Z,52.38
2019-01-30T22:26:59.705Z,52.36
2019-01-30T22:29:31.486Z,52.33
2019-01-30T22:32:03.417Z,52.32
2019-01-30T22:34:35.158Z,52.31
2019-01-30T22:37:06.885Z,52.32
2019-01-30T22:39:38.532Z,52.33
2019-01-30T22:42:12.167Z,52.36
2019-01-30T22:44:44.121Z,52.40
2019-01-30T22:47:15.793Z,52.43
2019-01-30T22:49:47.750Z,52.47
2019-01-30T22:52:19.575Z,52.50
2019-01-30T22:54:51.239Z,52.55
2019-01-30T22:57:23.039Z,52.67
2019-01-30T22:59:54.922Z,52.79
2019-01-30T23:02:27.016Z,52.92
2019-01-30T23:05:44.245Z,53.04
2019-01-30T23:09:07.375Z,53.13
2019-01-30T23:12:51.595Z,53.11
2019-01-30T23:15:34.606Z,53.03
2019-01-30T23:18:33.414Z,52.95
2019-01-30T23:21:22.397Z,52.91
2019-01-30T23:24:49.289Z,52.95
2019-01-30T23:27:46.625Z,53.02
2019-01-30T23:31:18.468Z,53.19
2019-01-30T23:34:20.907Z,53.33
2019-01-30T23:37:29.577Z,53.40
2019-01-30T23:40:53.787Z,53.36
2019-01-30T23:44:27.525Z,53.36
2019-01-30T23:48:03.066Z,53.50
2019-01-30T23:51:39.646Z,53.57
2019-01-30T23:55:07.549Z,53.78
2019-01-30T23:58:31.315Z,53.84
